Portada
METAR-TAF:

METAR-TAF

Aeroports :

Churchill, Manitoba, Canadà

latitud: 58-44N, longitud: 094-04W, altitud: 28 m

Observació

L'informe es va fer fa 39 minuts, a les 13:00 UTC
Vent 7 kt del Sud
Temperatura 7°C
Humitat 76%
Pressió 1023 hPa
Visibilitat: 24.1 km
Escasses núvols a una alçada de 25000 ft

METAR: CYYQ 171300Z 19007KT 15SM FEW250 07/03 A3021 RMK CI1 CI TR SLP235

Hora: 08:39 (13:39 UTC)

Pronòstic

L'informe es va fer fa 1 hora i 58 minuts, a les 11:41 UTC
Pronòstic vàlid del 17 a les 12 UTC al 18 a les 12 UTC
Vent 6 kt del Sud/Sud-Oest
Visibilitat: 10 km
Escasses núvols a una alçada de 500 ft
Escasses núvols a una alçada de 25000 ft
Probabilitat 30%
l' 17 a les 12 UTC al 17 a les 15 UTC
Visibilitat: 3.2 km
Cel ennuvolat a una alçada de 500 ft
boirina
A partir de les 17 a les 1500 UTC
Vent 10 kt del Sud/Sud-Oest
Visibilitat: 10 km
Cel clar

TAF: CYYQ 171141Z 1712/1812 20006KT P6SM FEW005 FEW250 PROB30 1712/1715 2SM BR BKN005 FM171500 21010KT P6SM SKC RMK NXT FCST BY 171800Z

Observacions i pronòstics meteorològics de més de 4000 aeroports (METAR i TAF).

Les estacions disponibles són els punts grocs i vermells al mapa.

Posi el ratolí al punt desitjat per veure el nom de l'estació.

Feu clic per veure les observacions i els pronòstics meteorològics.

Per canviar el mapa: feu clic els botons verds amb una creu de color negre per apropar; al botó verd amb un guió per allunyar la imatge; o en les fletxes verdes per a mapes adjacents.


METAR-TAF: